Rindo Maru — JD3883 — position and weather

sailwx.info

Track history (hours):
 
Tides and Currents Weather Stations Pressure Air Temp Water Temp Dewpoint Dewpoint Depression Visibility Wind Speed Wind Dir Waves Ship Positions

Rindo Maru

Last reported at 2017-Dec-11 07:41 UTC. Time now 2017-Dec-13 03:43 UTC.
Position N 34°32' E 138°14'.

Length 105 m; draft 6.2 m.

Type: Tanker. MMSI: 431007017.

Date/timePositionNaut miles runAvg speedWind from/ knotsBaromVisibWave heightAir tempDewpointWater temp
2017-Dec-11 07:41N 34°32' E 138°14'413.2
2017-Dec-11 07:24N 34°33' E 138°18'614.5
2017-Dec-11 07:00N 34°38' E 138°22'714.9
2017-Dec-11 06:30N 34°45' E 138°25'715.0
2017-Dec-11 06:00N 34°52' E 138°29'714.5
2017-Dec-11 05:31N 34°58' E 138°32'4 7.8
2017-Dec-11 05:00N 35°02' E 138°30'0 0.1
2017-Dec-11 04:29N 35°02' E 138°30'0 0.0
2017-Dec-11 03:59N 35°02' E 138°30'0 0.0
2017-Dec-11 03:29N 35°02' E 138°30'0 0.0
2017-Dec-11 02:59N 35°02' E 138°30'0 0.0
2017-Dec-11 02:29N 35°02' E 138°30'0 0.0
2017-Dec-11 01:59N 35°02' E 138°30'0 0.0
2017-Dec-11 01:29N 35°02' E 138°30'0 0.0
2017-Dec-11 00:56N 35°02' E 138°30'0 0.0
2017-Dec-11 00:29N 35°02' E 138°30'0 0.0
2017-Dec-10 23:53N 35°02' E 138°30'0 0.2
2017-Dec-10 23:30N 35°02' E 138°30'2 2.9
2017-Dec-10 22:59N 35°02' E 138°32'0 0.0
2017-Dec-10 22:29N 35°02' E 138°32'0 0.0
2017-Dec-10 21:59N 35°02' E 138°32'0 0.0
2017-Dec-10 21:29N 35°02' E 138°32'1 1.4
2017-Dec-10 21:00N 35°01' E 138°32'612.2
2017-Dec-10 20:30N 34°56' E 138°35'714.6
2017-Dec-10 20:00N 34°49' E 138°38'815.5
2017-Dec-10 19:30N 34°41' E 138°41'814.4
2017-Dec-10 18:56N 34°34' E 138°45'612.9
2017-Dec-10 18:30N 34°33' E 138°52'612.2
2017-Dec-10 17:59N 34°33' E 138°59'612.4
2017-Dec-10 17:30N 34°37' E 139°05'812.9
2017-Dec-10 16:51N 34°44' E 139°11'412.0
2017-Dec-10 16:30N 34°46' E 139°15'711.9
2017-Dec-10 15:57N 34°51' E 139°21'511.4
2017-Dec-10 15:30N 34°54' E 139°26'611.2
2017-Dec-10 15:00N 34°58' E 139°31'612.2
2017-Dec-10 14:30N 35°02' E 139°37'713.1
2017-Dec-10 14:00N 35°06' E 139°43'713.2
2017-Dec-10 13:30N 35°12' E 139°46'612.4
2017-Dec-10 13:00N 35°18' E 139°44'612.3
2017-Dec-10 12:30N 35°24' E 139°43'612.6
2017-Dec-10 12:00N 35°28' E 139°49'611.9
2017-Dec-10 11:31N 35°30' E 139°56'4 7.7
2017-Dec-10 11:00N 35°29' E 140°01'0 0.0
2017-Dec-10 03:27N 35°29' E 140°01'1 3.2
2017-Dec-10 03:00N 35°30' E 139°59'3 5.6
2017-Dec-10 02:31N 35°29' E 139°56'612.8
2017-Dec-10 02:01N 35°26' E 139°49'612.0
2017-Dec-10 01:30N 35°21' E 139°45'510.2
2017-Dec-10 01:01N 35°16' E 139°46'612.0
2017-Dec-10 00:31N 35°10' E 139°47'815.5
2017-Dec-10 00:00N 35°03' E 139°44'813.4
2017-Dec-09 23:26N 34°55' E 139°45'1210.9
2017-Dec-09 22:23N 34°52' E 139°59'512.7
2017-Dec-09 22:00N 34°55' E 140°04'813.6
2017-Dec-09 21:25N 34°59' E 140°12'  
2017-Dec-02 17:07N 35°02' E 140°23'413.7
2017-Dec-02 16:50N 35°00' E 140°19'413.3
2017-Dec-02 16:30N 34°58' E 140°14'813.1
2017-Dec-02 15:54N 34°55' E 140°06'513.2
2017-Dec-02 15:30N 34°52' E 139°60'713.2
2017-Dec-02 15:00N 34°50' E 139°52'613.3
2017-Dec-02 14:30N 34°54' E 139°46'714.4
2017-Dec-02 14:00N 35°00' E 139°42'714.3
2017-Dec-02 13:30N 35°07' E 139°44'714.3
2017-Dec-02 13:00N 35°14' E 139°46'713.1
2017-Dec-02 12:30N 35°20' E 139°42'612.7
2017-Dec-02 12:01N 35°26' E 139°45'713.9
2017-Dec-02 11:31N 35°30' E 139°53'612.4
2017-Dec-02 11:00N 35°29' E 140°00'1 2.0
2017-Dec-02 10:30N 35°28' E 140°01'0 0.0
2017-Dec-02 04:56N 35°28' E 140°01'2 4.4
2017-Dec-02 04:31N 35°29' E 139°59'0 0.0
2017-Dec-02 04:00N 35°29' E 139°59'0 0.0
2017-Dec-02 03:30N 35°29' E 139°59'0 0.6
2017-Dec-02 03:00N 35°29' E 139°59'713.8
2017-Dec-02 02:30N 35°28' E 139°51'713.9
2017-Dec-02 02:00N 35°22' E 139°45'611.6
2017-Dec-02 01:30N 35°16' E 139°46'612.6
2017-Dec-02 01:00N 35°10' E 139°46'714.2
2017-Dec-02 00:30N 35°03' E 139°44'713.0
2017-Dec-02 00:00N 34°57' E 139°44'714.4
2017-Dec-01 23:30N 34°51' E 139°49'815.4
2017-Dec-01 23:00N 34°53' E 139°58'814.5
2017-Dec-01 22:29N 34°57' E 140°07'1314.3
2017-Dec-01 21:33N 35°04' E 140°21'  
Track history (hours):
 
Tides and Currents Weather Stations Pressure Air Temp Water Temp Dewpoint Dewpoint Depression Visibility Wind Speed Wind Dir Waves Ship Positions

Rindo Maru

Last reported at 2017-Dec-11 07:41 UTC. Time now 2017-Dec-13 03:43 UTC.
Position N 34°32' E 138°14'.

Length 105 m; draft 6.2 m.

Type: Tanker. MMSI: 431007017.

Date/timePositionNaut miles runAvg speedWind from/ knotsBaromVisibWave heightAir tempDewpointWater temp
2017-Dec-11 07:41N 34°32' E 138°14'413.2
2017-Dec-11 07:24N 34°33' E 138°18'614.5
2017-Dec-11 07:00N 34°38' E 138°22'714.9
2017-Dec-11 06:30N 34°45' E 138°25'715.0
2017-Dec-11 06:00N 34°52' E 138°29'714.5
2017-Dec-11 05:31N 34°58' E 138°32'4 7.8
2017-Dec-11 05:00N 35°02' E 138°30'0 0.1
2017-Dec-11 04:29N 35°02' E 138°30'0 0.0
2017-Dec-11 03:59N 35°02' E 138°30'0 0.0
2017-Dec-11 03:29N 35°02' E 138°30'0 0.0
2017-Dec-11 02:59N 35°02' E 138°30'0 0.0
2017-Dec-11 02:29N 35°02' E 138°30'0 0.0
2017-Dec-11 01:59N 35°02' E 138°30'0 0.0
2017-Dec-11 01:29N 35°02' E 138°30'0 0.0
2017-Dec-11 00:56N 35°02' E 138°30'0 0.0
2017-Dec-11 00:29N 35°02' E 138°30'0 0.0
2017-Dec-10 23:53N 35°02' E 138°30'0 0.2
2017-Dec-10 23:30N 35°02' E 138°30'2 2.9
2017-Dec-10 22:59N 35°02' E 138°32'0 0.0
2017-Dec-10 22:29N 35°02' E 138°32'0 0.0
2017-Dec-10 21:59N 35°02' E 138°32'0 0.0
2017-Dec-10 21:29N 35°02' E 138°32'1 1.4
2017-Dec-10 21:00N 35°01' E 138°32'612.2
2017-Dec-10 20:30N 34°56' E 138°35'714.6
2017-Dec-10 20:00N 34°49' E 138°38'815.5
2017-Dec-10 19:30N 34°41' E 138°41'814.4
2017-Dec-10 18:56N 34°34' E 138°45'612.9
2017-Dec-10 18:30N 34°33' E 138°52'612.2
2017-Dec-10 17:59N 34°33' E 138°59'612.4
2017-Dec-10 17:30N 34°37' E 139°05'812.9
2017-Dec-10 16:51N 34°44' E 139°11'412.0
2017-Dec-10 16:30N 34°46' E 139°15'711.9
2017-Dec-10 15:57N 34°51' E 139°21'511.4
2017-Dec-10 15:30N 34°54' E 139°26'611.2
2017-Dec-10 15:00N 34°58' E 139°31'612.2
2017-Dec-10 14:30N 35°02' E 139°37'713.1
2017-Dec-10 14:00N 35°06' E 139°43'713.2
2017-Dec-10 13:30N 35°12' E 139°46'612.4
2017-Dec-10 13:00N 35°18' E 139°44'612.3
2017-Dec-10 12:30N 35°24' E 139°43'612.6
2017-Dec-10 12:00N 35°28' E 139°49'611.9
2017-Dec-10 11:31N 35°30' E 139°56'4 7.7
2017-Dec-10 11:00N 35°29' E 140°01'0 0.0
2017-Dec-10 03:27N 35°29' E 140°01'1 3.2
2017-Dec-10 03:00N 35°30' E 139°59'3 5.6
2017-Dec-10 02:31N 35°29' E 139°56'612.8
2017-Dec-10 02:01N 35°26' E 139°49'612.0
2017-Dec-10 01:30N 35°21' E 139°45'510.2
2017-Dec-10 01:01N 35°16' E 139°46'612.0
2017-Dec-10 00:31N 35°10' E 139°47'815.5
2017-Dec-10 00:00N 35°03' E 139°44'813.4
2017-Dec-09 23:26N 34°55' E 139°45'1210.9
2017-Dec-09 22:23N 34°52' E 139°59'512.7
2017-Dec-09 22:00N 34°55' E 140°04'813.6
2017-Dec-09 21:25N 34°59' E 140°12'  
2017-Dec-02 17:07N 35°02' E 140°23'413.7
2017-Dec-02 16:50N 35°00' E 140°19'413.3
2017-Dec-02 16:30N 34°58' E 140°14'813.1
2017-Dec-02 15:54N 34°55' E 140°06'513.2
2017-Dec-02 15:30N 34°52' E 139°60'713.2
2017-Dec-02 15:00N 34°50' E 139°52'613.3
2017-Dec-02 14:30N 34°54' E 139°46'714.4
2017-Dec-02 14:00N 35°00' E 139°42'714.3
2017-Dec-02 13:30N 35°07' E 139°44'714.3
2017-Dec-02 13:00N 35°14' E 139°46'713.1
2017-Dec-02 12:30N 35°20' E 139°42'612.7
2017-Dec-02 12:01N 35°26' E 139°45'713.9
2017-Dec-02 11:31N 35°30' E 139°53'612.4
2017-Dec-02 11:00N 35°29' E 140°00'1 2.0
2017-Dec-02 10:30N 35°28' E 140°01'0 0.0
2017-Dec-02 04:56N 35°28' E 140°01'2 4.4
2017-Dec-02 04:31N 35°29' E 139°59'0 0.0
2017-Dec-02 04:00N 35°29' E 139°59'0 0.0
2017-Dec-02 03:30N 35°29' E 139°59'0 0.6
2017-Dec-02 03:00N 35°29' E 139°59'713.8
2017-Dec-02 02:30N 35°28' E 139°51'713.9
2017-Dec-02 02:00N 35°22' E 139°45'611.6
2017-Dec-02 01:30N 35°16' E 139°46'612.6
2017-Dec-02 01:00N 35°10' E 139°46'714.2
2017-Dec-02 00:30N 35°03' E 139°44'713.0
2017-Dec-02 00:00N 34°57' E 139°44'714.4
2017-Dec-01 23:30N 34°51' E 139°49'815.4
2017-Dec-01 23:00N 34°53' E 139°58'814.5
2017-Dec-01 22:29N 34°57' E 140°07'1314.3
2017-Dec-01 21:33N 35°04' E 140°21'  

Dump ship's entire track history